sensor_id;sensor_type;location;lat;lon;timestamp;P1;durP1;ratioP1;P2;durP2;ratioP2
59504;SDS011;45321;53.200;5.814;2023-04-01T00:01:40;21.50;;;17.23;;
59504;SDS011;45321;53.200;5.814;2023-04-01T00:04:08;20.58;;;17.05;;
59504;SDS011;45321;53.200;5.814;2023-04-01T00:06:46;15.40;;;11.02;;
59504;SDS011;45321;53.200;5.814;2023-04-01T00:09:12;14.43;;;12.90;;
59504;SDS011;45321;53.200;5.814;2023-04-01T00:11:39;13.75;;;11.65;;
59504;SDS011;45321;53.200;5.814;2023-04-01T00:14:05;20.52;;;15.80;;
59504;SDS011;45321;53.200;5.814;2023-04-01T00:16:32;15.55;;;13.88;;
59504;SDS011;45321;53.200;5.814;2023-04-01T00:18:57;18.77;;;16.67;;
59504;SDS011;45321;53.200;5.814;2023-04-01T00:21:23;19.15;;;16.40;;
59504;SDS011;45321;53.200;5.814;2023-04-01T00:23:50;17.52;;;14.77;;
59504;SDS011;45321;53.200;5.814;2023-04-01T00:26:16;22.02;;;17.08;;
59504;SDS011;45321;53.200;5.814;2023-04-01T00:28:44;21.45;;;18.63;;
59504;SDS011;45321;53.200;5.814;2023-04-01T00:31:13;18.48;;;15.68;;
59504;SDS011;45321;53.200;5.814;2023-04-01T00:33:40;12.00;;;10.80;;
59504;SDS011;45321;53.200;5.814;2023-04-01T00:36:13;16.52;;;13.77;;
59504;SDS011;45321;53.200;5.814;2023-04-01T00:38:42;13.82;;;11.77;;
59504;SDS011;45321;53.200;5.814;2023-04-01T00:41:08;15.73;;;13.95;;
59504;SDS011;45321;53.200;5.814;2023-04-01T00:43:39;15.68;;;13.88;;
59504;SDS011;45321;53.200;5.814;2023-04-01T00:46:10;17.92;;;15.35;;
59504;SDS011;45321;53.200;5.814;2023-04-01T00:48:37;13.98;;;12.55;;
59504;SDS011;45321;53.200;5.814;2023-04-01T00:53:36;17.88;;;14.95;;
59504;SDS011;45321;53.200;5.814;2023-04-01T00:56:15;13.43;;;12.02;;
59504;SDS011;45321;53.200;5.814;2023-04-01T00:58:48;12.52;;;11.23;;
59504;SDS011;45321;53.200;5.814;2023-04-01T01:01:16;11.02;;;10.02;;
59504;SDS011;45321;53.200;5.814;2023-04-01T01:03:43;10.75;;;9.68;;
59504;SDS011;45321;53.200;5.814;2023-04-01T01:06:19;9.85;;;8.85;;
59504;SDS011;45321;53.200;5.814;2023-04-01T01:12:18;11.02;;;9.75;;
59504;SDS011;45321;53.200;5.814;2023-04-01T01:15:32;10.05;;;9.05;;
59504;SDS011;45321;53.200;5.814;2023-04-01T01:26:14;10.35;;;8.95;;
59504;SDS011;45321;53.200;5.814;2023-04-01T01:29:42;11.02;;;9.85;;
59504;SDS011;45321;53.200;5.814;2023-04-01T01:37:38;10.95;;;9.93;;
59504;SDS011;45321;53.200;5.814;2023-04-01T01:40:07;10.00;;;9.10;;
59504;SDS011;45321;53.200;5.814;2023-04-01T01:42:37;10.20;;;9.20;;
59504;SDS011;45321;53.200;5.814;2023-04-01T01:45:05;10.55;;;9.50;;
59504;SDS011;45321;53.200;5.814;2023-04-01T01:47:33;10.32;;;9.32;;
59504;SDS011;45321;53.200;5.814;2023-04-01T01:50:00;10.13;;;9.05;;
59504;SDS011;45321;53.200;5.814;2023-04-01T01:52:28;9.73;;;8.82;;
59504;SDS011;45321;53.200;5.814;2023-04-01T01:54:55;10.68;;;9.65;;
59504;SDS011;45321;53.200;5.814;2023-04-01T01:57:33;10.57;;;9.57;;
59504;SDS011;45321;53.200;5.814;2023-04-01T02:00:03;10.40;;;9.38;;
59504;SDS011;45321;53.200;5.814;2023-04-01T02:02:39;10.48;;;9.38;;
59504;SDS011;45321;53.200;5.814;2023-04-01T02:05:08;11.52;;;9.73;;
59504;SDS011;45321;53.200;5.814;2023-04-01T02:07:36;12.20;;;10.57;;
59504;SDS011;45321;53.200;5.814;2023-04-01T02:10:05;10.82;;;9.73;;
59504;SDS011;45321;53.200;5.814;2023-04-01T02:12:31;13.02;;;11.27;;
59504;SDS011;45321;53.200;5.814;2023-04-01T02:17:33;12.50;;;10.40;;
59504;SDS011;45321;53.200;5.814;2023-04-01T02:20:06;11.73;;;10.63;;
59504;SDS011;45321;53.200;5.814;2023-04-01T02:22:53;12.00;;;10.30;;
59504;SDS011;45321;53.200;5.814;2023-04-01T02:25:22;11.70;;;10.50;;
59504;SDS011;45321;53.200;5.814;2023-04-01T02:27:52;11.85;;;10.70;;
59504;SDS011;45321;53.200;5.814;2023-04-01T02:30:20;11.63;;;10.52;;
59504;SDS011;45321;53.200;5.814;2023-04-01T02:32:46;12.10;;;10.68;;
59504;SDS011;45321;53.200;5.814;2023-04-01T02:35:15;12.65;;;11.35;;
59504;SDS011;45321;53.200;5.814;2023-04-01T02:37:42;12.02;;;10.82;;
59504;SDS011;45321;53.200;5.814;2023-04-01T02:40:10;12.95;;;11.40;;
59504;SDS011;45321;53.200;5.814;2023-04-01T02:42:38;12.63;;;11.43;;
59504;SDS011;45321;53.200;5.814;2023-04-01T02:45:04;12.48;;;11.25;;
59504;SDS011;45321;53.200;5.814;2023-04-01T02:47:31;12.57;;;11.27;;
59504;SDS011;45321;53.200;5.814;2023-04-01T02:49:57;12.70;;;11.30;;
59504;SDS011;45321;53.200;5.814;2023-04-01T02:52:25;12.98;;;11.57;;
59504;SDS011;45321;53.200;5.814;2023-04-01T02:54:52;14.30;;;12.07;;
59504;SDS011;45321;53.200;5.814;2023-04-01T02:57:17;12.73;;;11.43;;
59504;SDS011;45321;53.200;5.814;2023-04-01T02:59:43;13.27;;;11.95;;
59504;SDS011;45321;53.200;5.814;2023-04-01T03:02:09;13.52;;;12.02;;
59504;SDS011;45321;53.200;5.814;2023-04-01T03:04:35;12.93;;;11.68;;
59504;SDS011;45321;53.200;5.814;2023-04-01T03:07:01;13.77;;;12.20;;
59504;SDS011;45321;53.200;5.814;2023-04-01T03:09:27;13.35;;;11.95;;
59504;SDS011;45321;53.200;5.814;2023-04-01T03:11:53;13.00;;;11.68;;
59504;SDS011;45321;53.200;5.814;2023-04-01T03:14:19;13.05;;;11.75;;
59504;SDS011;45321;53.200;5.814;2023-04-01T03:16:45;13.18;;;11.88;;
59504;SDS011;45321;53.200;5.814;2023-04-01T03:19:11;13.55;;;12.23;;
59504;SDS011;45321;53.200;5.814;2023-04-01T03:21:37;13.30;;;11.60;;
59504;SDS011;45321;53.200;5.814;2023-04-01T03:24:02;13.50;;;11.57;;
59504;SDS011;45321;53.200;5.814;2023-04-01T03:26:28;12.50;;;11.20;;
59504;SDS011;45321;53.200;5.814;2023-04-01T03:28:55;13.98;;;12.05;;
59504;SDS011;45321;53.200;5.814;2023-04-01T03:31:21;13.25;;;11.85;;
59504;SDS011;45321;53.200;5.814;2023-04-01T03:33:47;12.75;;;11.35;;
59504;SDS011;45321;53.200;5.814;2023-04-01T03:36:13;14.23;;;12.73;;
59504;SDS011;45321;53.200;5.814;2023-04-01T03:38:42;13.80;;;12.27;;
59504;SDS011;45321;53.200;5.814;2023-04-01T03:41:12;12.73;;;11.50;;
59504;SDS011;45321;53.200;5.814;2023-04-01T03:43:39;12.98;;;11.68;;
59504;SDS011;45321;53.200;5.814;2023-04-01T03:46:05;12.40;;;11.10;;
59504;SDS011;45321;53.200;5.814;2023-04-01T03:48:30;11.98;;;10.77;;
59504;SDS011;45321;53.200;5.814;2023-04-01T03:50:56;13.27;;;11.02;;
59504;SDS011;45321;53.200;5.814;2023-04-01T03:53:22;12.02;;;10.77;;
59504;SDS011;45321;53.200;5.814;2023-04-01T03:55:48;12.95;;;11.75;;
59504;SDS011;45321;53.200;5.814;2023-04-01T03:58:16;13.27;;;11.88;;
59504;SDS011;45321;53.200;5.814;2023-04-01T04:00:42;12.85;;;11.48;;
59504;SDS011;45321;53.200;5.814;2023-04-01T04:03:07;12.48;;;11.18;;
59504;SDS011;45321;53.200;5.814;2023-04-01T04:05:33;12.50;;;11.30;;
59504;SDS011;45321;53.200;5.814;2023-04-01T04:07:59;12.75;;;11.35;;
59504;SDS011;45321;53.200;5.814;2023-04-01T04:10:25;12.70;;;11.50;;
59504;SDS011;45321;53.200;5.814;2023-04-01T04:12:51;13.68;;;12.27;;
59504;SDS011;45321;53.200;5.814;2023-04-01T04:15:17;13.32;;;12.00;;
59504;SDS011;45321;53.200;5.814;2023-04-01T04:17:46;13.38;;;12.07;;
59504;SDS011;45321;53.200;5.814;2023-04-01T04:20:12;13.98;;;11.93;;
59504;SDS011;45321;53.200;5.814;2023-04-01T04:22:38;12.88;;;11.38;;
59504;SDS011;45321;53.200;5.814;2023-04-01T04:25:04;13.48;;;11.85;;
59504;SDS011;45321;53.200;5.814;2023-04-01T04:27:31;14.25;;;12.40;;
59504;SDS011;45321;53.200;5.814;2023-04-01T04:29:57;13.60;;;12.30;;
59504;SDS011;45321;53.200;5.814;2023-04-01T04:32:22;14.50;;;13.02;;
59504;SDS011;45321;53.200;5.814;2023-04-01T04:34:48;14.68;;;13.07;;
59504;SDS011;45321;53.200;5.814;2023-04-01T04:37:14;15.60;;;13.88;;
59504;SDS011;45321;53.200;5.814;2023-04-01T04:39:40;14.77;;;13.27;;
59504;SDS011;45321;53.200;5.814;2023-04-01T04:42:05;15.95;;;14.20;;
59504;SDS011;45321;53.200;5.814;2023-04-01T04:44:31;15.63;;;14.02;;
59504;SDS011;45321;53.200;5.814;2023-04-01T04:46:57;15.38;;;13.40;;
59504;SDS011;45321;53.200;5.814;2023-04-01T04:49:22;14.93;;;13.32;;
59504;SDS011;45321;53.200;5.814;2023-04-01T04:51:48;15.20;;;13.60;;
59504;SDS011;45321;53.200;5.814;2023-04-01T04:54:14;16.40;;;14.70;;
59504;SDS011;45321;53.200;5.814;2023-04-01T04:56:40;19.20;;;15.00;;
59504;SDS011;45321;53.200;5.814;2023-04-01T04:59:06;16.35;;;14.65;;
59504;SDS011;45321;53.200;5.814;2023-04-01T05:01:32;16.05;;;14.32;;
59504;SDS011;45321;53.200;5.814;2023-04-01T05:03:58;17.17;;;14.48;;
59504;SDS011;45321;53.200;5.814;2023-04-01T05:06:24;16.75;;;14.95;;
59504;SDS011;45321;53.200;5.814;2023-04-01T05:08:50;16.90;;;14.85;;
59504;SDS011;45321;53.200;5.814;2023-04-01T05:11:17;17.02;;;15.23;;
59504;SDS011;45321;53.200;5.814;2023-04-01T05:13:44;17.23;;;15.38;;
59504;SDS011;45321;53.200;5.814;2023-04-01T05:16:12;22.63;;;16.45;;
59504;SDS011;45321;53.200;5.814;2023-04-01T05:18:39;20.20;;;16.33;;
59504;SDS011;45321;53.200;5.814;2023-04-01T05:21:06;19.02;;;16.42;;
59504;SDS011;45321;53.200;5.814;2023-04-01T05:23:33;18.42;;;16.27;;
59504;SDS011;45321;53.200;5.814;2023-04-01T05:26:06;18.80;;;16.90;;
59504;SDS011;45321;53.200;5.814;2023-04-01T05:28:33;20.30;;;16.65;;
59504;SDS011;45321;53.200;5.814;2023-04-01T05:30:59;19.40;;;16.75;;
59504;SDS011;45321;53.200;5.814;2023-04-01T05:33:26;23.63;;;18.85;;
59504;SDS011;45321;53.200;5.814;2023-04-01T05:35:53;20.25;;;17.63;;
59504;SDS011;45321;53.200;5.814;2023-04-01T05:38:19;18.38;;;16.23;;
59504;SDS011;45321;53.200;5.814;2023-04-01T05:40:45;19.88;;;17.60;;
59504;SDS011;45321;53.200;5.814;2023-04-01T05:43:11;18.98;;;16.58;;
59504;SDS011;45321;53.200;5.814;2023-04-01T05:45:37;19.00;;;16.98;;
59504;SDS011;45321;53.200;5.814;2023-04-01T05:48:02;18.25;;;16.35;;
59504;SDS011;45321;53.200;5.814;2023-04-01T05:50:28;19.35;;;16.90;;
59504;SDS011;45321;53.200;5.814;2023-04-01T05:52:54;21.95;;;18.15;;
59504;SDS011;45321;53.200;5.814;2023-04-01T05:55:20;20.50;;;17.15;;
59504;SDS011;45321;53.200;5.814;2023-04-01T05:57:46;21.02;;;17.73;;
59504;SDS011;45321;53.200;5.814;2023-04-01T06:00:13;19.08;;;17.08;;
59504;SDS011;45321;53.200;5.814;2023-04-01T06:02:40;19.55;;;17.40;;
59504;SDS011;45321;53.200;5.814;2023-04-01T06:05:17;20.00;;;17.88;;
59504;SDS011;45321;53.200;5.814;2023-04-01T06:07:46;20.02;;;17.95;;
59504;SDS011;45321;53.200;5.814;2023-04-01T06:10:17;22.88;;;19.58;;
59504;SDS011;45321;53.200;5.814;2023-04-01T06:12:58;22.17;;;19.42;;
59504;SDS011;45321;53.200;5.814;2023-04-01T06:15:36;19.42;;;17.35;;
59504;SDS011;45321;53.200;5.814;2023-04-01T06:23:35;20.23;;;17.42;;
59504;SDS011;45321;53.200;5.814;2023-04-01T06:26:14;19.70;;;17.02;;
59504;SDS011;45321;53.200;5.814;2023-04-01T06:42:42;16.02;;;14.30;;
59504;SDS011;45321;53.200;5.814;2023-04-01T06:48:06;14.57;;;13.02;;
59504;SDS011;45321;53.200;5.814;2023-04-01T06:53:54;16.08;;;13.88;;
59504;SDS011;45321;53.200;5.814;2023-04-01T06:56:28;15.18;;;13.57;;
59504;SDS011;45321;53.200;5.814;2023-04-01T06:58:56;16.25;;;13.73;;
59504;SDS011;45321;53.200;5.814;2023-04-01T07:01:32;16.08;;;14.48;;
59504;SDS011;45321;53.200;5.814;2023-04-01T07:09:50;17.60;;;15.32;;
59504;SDS011;45321;53.200;5.814;2023-04-01T07:12:26;18.17;;;16.05;;
59504;SDS011;45321;53.200;5.814;2023-04-01T07:15:00;21.30;;;17.35;;
59504;SDS011;45321;53.200;5.814;2023-04-01T07:17:40;17.80;;;15.95;;
59504;SDS011;45321;53.200;5.814;2023-04-01T07:20:13;18.50;;;16.67;;
59504;SDS011;45321;53.200;5.814;2023-04-01T07:22:51;18.90;;;16.90;;
59504;SDS011;45321;53.200;5.814;2023-04-01T07:25:31;18.05;;;16.15;;
59504;SDS011;45321;53.200;5.814;2023-04-01T07:28:02;17.73;;;16.05;;
59504;SDS011;45321;53.200;5.814;2023-04-01T07:30:33;18.58;;;;;
59504;SDS011;45321;53.200;5.814;2023-04-01T07:36:10;19.27;;;16.88;;
59504;SDS011;45321;53.200;5.814;2023-04-01T07:41:13;18.33;;;16.38;;
59504;SDS011;45321;53.200;5.814;2023-04-01T07:43:56;19.13;;;17.13;;
59504;SDS011;45321;53.200;5.814;2023-04-01T07:52:21;28.83;;;20.25;;
59504;SDS011;45321;53.200;5.814;2023-04-01T07:55:05;28.83;;;20.98;;
59504;SDS011;45321;53.200;5.814;2023-04-01T07:57:49;26.55;;;19.00;;
59504;SDS011;45321;53.200;5.814;2023-04-01T08:00:21;29.25;;;19.90;;
59504;SDS011;45321;53.200;5.814;2023-04-01T08:02:57;28.13;;;20.20;;
59504;SDS011;45321;53.200;5.814;2023-04-01T08:08:08;26.80;;;19.15;;
59504;SDS011;45321;53.200;5.814;2023-04-01T08:10:47;27.63;;;18.42;;
59504;SDS011;45321;53.200;5.814;2023-04-01T08:22:22;20.58;;;13.70;;
59504;SDS011;45321;53.200;5.814;2023-04-01T08:25:10;14.88;;;11.07;;
59504;SDS011;45321;53.200;5.814;2023-04-01T08:27:45;16.30;;;10.27;;
59504;SDS011;45321;53.200;5.814;2023-04-01T08:30:18;15.25;;;9.98;;
59504;SDS011;45321;53.200;5.814;2023-04-01T08:33:02;15.35;;;9.40;;
59504;SDS011;45321;53.200;5.814;2023-04-01T08:52:49;10.60;;;5.70;;
59504;SDS011;45321;53.200;5.814;2023-04-01T09:01:21;6.50;;;4.85;;
59504;SDS011;45321;53.200;5.814;2023-04-01T09:07:08;8.00;;;5.00;;
59504;SDS011;45321;53.200;5.814;2023-04-01T09:12:51;6.85;;;4.75;;
59504;SDS011;45321;53.200;5.814;2023-04-01T09:18:12;8.55;;;5.70;;
59504;SDS011;45321;53.200;5.814;2023-04-01T09:37:53;6.85;;;3.25;;
59504;SDS011;45321;53.200;5.814;2023-04-01T09:40:31;6.63;;;3.15;;
59504;SDS011;45321;53.200;5.814;2023-04-01T09:46:05;4.18;;;2.40;;
59504;SDS011;45321;53.200;5.814;2023-04-01T09:48:55;3.88;;;2.30;;
59504;SDS011;45321;53.200;5.814;2023-04-01T09:54:58;4.97;;;2.58;;
59504;SDS011;45321;53.200;5.814;2023-04-01T09:58:08;6.55;;;2.75;;
59504;SDS011;45321;53.200;5.814;2023-04-01T10:01:03;8.95;;;2.67;;
59504;SDS011;45321;53.200;5.814;2023-04-01T10:03:44;6.70;;;3.53;;
59504;SDS011;45321;53.200;5.814;2023-04-01T10:18:24;7.15;;;2.97;;
59504;SDS011;45321;53.200;5.814;2023-04-01T10:23:55;6.97;;;2.95;;
59504;SDS011;45321;53.200;5.814;2023-04-01T10:26:48;4.93;;;2.35;;
59504;SDS011;45321;53.200;5.814;2023-04-01T10:51:14;6.70;;;3.00;;
59504;SDS011;45321;53.200;5.814;2023-04-01T10:54:10;4.93;;;2.80;;
59504;SDS011;45321;53.200;5.814;2023-04-01T11:04:58;9.40;;;3.38;;
59504;SDS011;45321;53.200;5.814;2023-04-01T11:08:00;7.70;;;3.00;;
59504;SDS011;45321;53.200;5.814;2023-04-01T11:29:49;4.18;;;2.50;;
59504;SDS011;45321;53.200;5.814;2023-04-01T11:43:44;4.45;;;1.90;;
59504;SDS011;45321;53.200;5.814;2023-04-01T12:05:52;5.22;;;1.90;;
59504;SDS011;45321;53.200;5.814;2023-04-01T12:11:34;3.03;;;1.73;;
59504;SDS011;45321;53.200;5.814;2023-04-01T12:14:13;1.52;;;1.40;;
59504;SDS011;45321;53.200;5.814;2023-04-01T12:20:39;5.10;;;1.90;;
59504;SDS011;45321;53.200;5.814;2023-04-01T12:28:10;2.78;;;1.60;;
59504;SDS011;45321;53.200;5.814;2023-04-01T12:30:54;4.32;;;1.73;;
59504;SDS011;45321;53.200;5.814;2023-04-01T12:36:28;4.72;;;2.17;;
59504;SDS011;45321;53.200;5.814;2023-04-01T12:39:26;4.60;;;2.25;;
59504;SDS011;45321;53.200;5.814;2023-04-01T13:07:01;3.67;;;1.20;;
59504;SDS011;45321;53.200;5.814;2023-04-01T13:10:04;1.77;;;1.20;;
59504;SDS011;45321;53.200;5.814;2023-04-01T13:18:36;3.97;;;1.42;;
59504;SDS011;45321;53.200;5.814;2023-04-01T13:21:15;3.88;;;1.50;;
59504;SDS011;45321;53.200;5.814;2023-04-01T13:26:41;4.60;;;1.77;;
59504;SDS011;45321;53.200;5.814;2023-04-01T13:29:25;2.35;;;1.17;;
59504;SDS011;45321;53.200;5.814;2023-04-01T13:35:02;4.30;;;2.90;;
59504;SDS011;45321;53.200;5.814;2023-04-01T13:43:29;3.25;;;1.73;;
59504;SDS011;45321;53.200;5.814;2023-04-01T14:00:56;4.78;;;1.60;;
59504;SDS011;45321;53.200;5.814;2023-04-01T14:03:13;4.65;;;1.92;;
59504;SDS011;45321;53.200;5.814;2023-04-01T14:06:09;3.60;;;1.70;;
59504;SDS011;45321;53.200;5.814;2023-04-01T14:09:03;4.65;;;1.58;;
59504;SDS011;45321;53.200;5.814;2023-04-01T14:31:27;4.65;;;1.70;;
59504;SDS011;45321;53.200;5.814;2023-04-01T14:37:09;3.13;;;1.67;;
59504;SDS011;45321;53.200;5.814;2023-04-01T14:51:09;3.35;;;1.90;;
59504;SDS011;45321;53.200;5.814;2023-04-01T15:00:28;5.35;;;2.60;;
59504;SDS011;45321;53.200;5.814;2023-04-01T15:03:02;6.72;;;2.40;;
59504;SDS011;45321;53.200;5.814;2023-04-01T15:05:55;4.50;;;2.33;;
59504;SDS011;45321;53.200;5.814;2023-04-01T15:14:02;8.00;;;2.70;;
59504;SDS011;45321;53.200;5.814;2023-04-01T15:30:31;6.10;;;2.80;;
59504;SDS011;45321;53.200;5.814;2023-04-01T15:54:31;10.25;;;4.35;;
59504;SDS011;45321;53.200;5.814;2023-04-01T15:59:53;7.30;;;4.72;;
59504;SDS011;45321;53.200;5.814;2023-04-01T16:02:46;6.70;;;4.35;;
59504;SDS011;45321;53.200;5.814;2023-04-01T16:16:25;7.28;;;4.07;;
59504;SDS011;45321;53.200;5.814;2023-04-01T16:19:12;13.25;;;4.18;;
59504;SDS011;45321;53.200;5.814;2023-04-01T16:27:09;11.80;;;4.55;;
59504;SDS011;45321;53.200;5.814;2023-04-01T16:32:21;9.35;;;4.90;;
59504;SDS011;45321;53.200;5.814;2023-04-01T16:43:44;12.35;;;4.97;;
59504;SDS011;45321;53.200;5.814;2023-04-01T16:51:33;8.95;;;5.88;;
59504;SDS011;45321;53.200;5.814;2023-04-01T16:57:10;10.52;;;5.90;;
59504;SDS011;45321;53.200;5.814;2023-04-01T16:59:47;9.90;;;5.85;;
59504;SDS011;45321;53.200;5.814;2023-04-01T17:02:37;8.95;;;5.40;;
59504;SDS011;45321;53.200;5.814;2023-04-01T17:05:11;12.18;;;5.22;;
59504;SDS011;45321;53.200;5.814;2023-04-01T17:07:40;11.13;;;5.88;;
59504;SDS011;45321;53.200;5.814;2023-04-01T17:13:34;14.07;;;6.00;;
59504;SDS011;45321;53.200;5.814;2023-04-01T17:27:35;9.45;;;4.85;;
59504;SDS011;45321;53.200;5.814;2023-04-01T17:44:20;15.80;;;6.25;;
59504;SDS011;45321;53.200;5.814;2023-04-01T17:47:22;15.73;;;6.70;;
59504;SDS011;45321;53.200;5.814;2023-04-01T17:58:21;10.85;;;5.03;;
59504;SDS011;45321;53.200;5.814;2023-04-01T18:03:54;9.35;;;5.32;;
59504;SDS011;45321;53.200;5.814;2023-04-01T18:06:40;9.48;;;5.85;;
59504;SDS011;45321;53.200;5.814;2023-04-01T18:14:51;13.98;;;6.57;;
59504;SDS011;45321;53.200;5.814;2023-04-01T18:23:14;10.20;;;5.50;;
59504;SDS011;45321;53.200;5.814;2023-04-01T18:29:26;13.10;;;5.70;;
59504;SDS011;45321;53.200;5.814;2023-04-01T18:37:39;11.65;;;6.05;;
59504;SDS011;45321;53.200;5.814;2023-04-01T18:40:15;12.65;;;5.32;;
59504;SDS011;45321;53.200;5.814;2023-04-01T18:43:08;10.70;;;5.72;;
59504;SDS011;45321;53.200;5.814;2023-04-01T18:45:59;15.80;;;7.28;;
59504;SDS011;45321;53.200;5.814;2023-04-01T18:54:13;14.18;;;6.95;;
59504;SDS011;45321;53.200;5.814;2023-04-01T18:56:41;12.35;;;6.00;;
59504;SDS011;45321;53.200;5.814;2023-04-01T19:04:50;19.02;;;10.52;;
59504;SDS011;45321;53.200;5.814;2023-04-01T19:07:40;14.32;;;7.85;;
59504;SDS011;45321;53.200;5.814;2023-04-01T19:10:14;11.48;;;6.28;;
59504;SDS011;45321;53.200;5.814;2023-04-01T19:15:52;12.93;;;6.63;;
59504;SDS011;45321;53.200;5.814;2023-04-01T19:18:58;14.90;;;5.75;;
59504;SDS011;45321;53.200;5.814;2023-04-01T19:21:43;13.15;;;7.30;;
59504;SDS011;45321;53.200;5.814;2023-04-01T19:27:18;10.88;;;5.93;;
59504;SDS011;45321;53.200;5.814;2023-04-01T19:29:54;10.48;;;5.97;;
59504;SDS011;45321;53.200;5.814;2023-04-01T19:38:04;12.70;;;5.85;;
59504;SDS011;45321;53.200;5.814;2023-04-01T19:48:39;10.35;;;5.35;;
59504;SDS011;45321;53.200;5.814;2023-04-01T19:54:23;14.80;;;6.45;;
59504;SDS011;45321;53.200;5.814;2023-04-01T19:59:53;12.35;;;5.68;;
59504;SDS011;45321;53.200;5.814;2023-04-01T20:05:21;16.88;;;7.68;;
59504;SDS011;45321;53.200;5.814;2023-04-01T20:10:57;12.05;;;5.95;;
59504;SDS011;45321;53.200;5.814;2023-04-01T20:16:08;11.88;;;6.82;;
59504;SDS011;45321;53.200;5.814;2023-04-01T20:18:37;12.45;;;7.25;;
59504;SDS011;45321;53.200;5.814;2023-04-01T20:24:01;13.85;;;7.00;;
59504;SDS011;45321;53.200;5.814;2023-04-01T20:26:47;15.55;;;7.93;;
59504;SDS011;45321;53.200;5.814;2023-04-01T20:29:35;10.18;;;5.55;;
59504;SDS011;45321;53.200;5.814;2023-04-01T20:32:25;11.80;;;6.60;;
59504;SDS011;45321;53.200;5.814;2023-04-01T20:37:34;17.20;;;7.38;;
59504;SDS011;45321;53.200;5.814;2023-04-01T20:40:12;10.32;;;5.10;;
59504;SDS011;45321;53.200;5.814;2023-04-01T20:43:07;10.70;;;5.63;;
59504;SDS011;45321;53.200;5.814;2023-04-01T20:48:26;12.32;;;6.13;;
59504;SDS011;45321;53.200;5.814;2023-04-01T20:50:56;11.25;;;5.65;;
59504;SDS011;45321;53.200;5.814;2023-04-01T20:53:28;11.40;;;4.95;;
59504;SDS011;45321;53.200;5.814;2023-04-01T21:04:22;11.20;;;5.30;;
59504;SDS011;45321;53.200;5.814;2023-04-01T21:07:17;11.20;;;4.90;;
59504;SDS011;45321;53.200;5.814;2023-04-01T21:09:55;11.60;;;4.90;;
59504;SDS011;45321;53.200;5.814;2023-04-01T21:18:23;10.90;;;4.45;;
59504;SDS011;45321;53.200;5.814;2023-04-01T21:26:47;14.95;;;4.93;;
59504;SDS011;45321;53.200;5.814;2023-04-01T21:34:40;11.75;;;4.72;;
59504;SDS011;45321;53.200;5.814;2023-04-01T21:37:25;8.27;;;5.00;;
59504;SDS011;45321;53.200;5.814;2023-04-01T22:14:14;9.45;;;4.68;;
59504;SDS011;45321;53.200;5.814;2023-04-01T22:17:24;12.88;;;4.70;;
59504;SDS011;45321;53.200;5.814;2023-04-01T22:26:07;10.77;;;4.70;;
59504;SDS011;45321;53.200;5.814;2023-04-01T22:31:17;13.07;;;4.78;;
59504;SDS011;45321;53.200;5.814;2023-04-01T22:33:56;13.18;;;4.25;;
59504;SDS011;45321;53.200;5.814;2023-04-01T22:41:41;11.68;;;4.00;;
59504;SDS011;45321;53.200;5.814;2023-04-01T22:49:49;15.98;;;6.57;;
59504;SDS011;45321;53.200;5.814;2023-04-01T22:54:56;10.02;;;4.28;;
59504;SDS011;45321;53.200;5.814;2023-04-01T23:00:34;9.23;;;5.10;;
59504;SDS011;45321;53.200;5.814;2023-04-01T23:06:12;12.27;;;6.15;;
59504;SDS011;45321;53.200;5.814;2023-04-01T23:08:55;11.57;;;7.13;;
59504;SDS011;45321;53.200;5.814;2023-04-01T23:11:47;10.80;;;5.10;;
59504;SDS011;45321;53.200;5.814;2023-04-01T23:19:46;8.85;;;3.90;;
59504;SDS011;45321;53.200;5.814;2023-04-01T23:22:39;11.48;;;4.90;;
59504;SDS011;45321;53.200;5.814;2023-04-01T23:25:23;12.13;;;4.55;;
59504;SDS011;45321;53.200;5.814;2023-04-01T23:30:48;12.23;;;4.22;;
59504;SDS011;45321;53.200;5.814;2023-04-01T23:35:48;11.00;;;4.07;;
59504;SDS011;45321;53.200;5.814;2023-04-01T23:38:34;9.38;;;3.58;;
59504;SDS011;45321;53.200;5.814;2023-04-01T23:41:06;9.43;;;4.10;;
59504;SDS011;45321;53.200;5.814;2023-04-01T23:43:45;11.80;;;3.90;;
59504;SDS011;45321;53.200;5.814;2023-04-01T23:46:21;9.27;;;4.07;;
59504;SDS011;45321;53.200;5.814;2023-04-01T23:48:47;9.65;;;4.47;;
59504;SDS011;45321;53.200;5.814;2023-04-01T23:51:18;14.15;;;5.13;;
59504;SDS011;45321;53.200;5.814;2023-04-01T23:53:55;9.80;;;4.30;;
59504;SDS011;45321;53.200;5.814;2023-04-01T23:56:31;11.85;;;4.75;;
59504;SDS011;45321;53.200;5.814;2023-04-01T23:59:02;7.40;;;4.10;;
